Forseti — V2PV4 — position and weather

sailwx.info

Track history (hours):
 
Tides and Currents Weather Stations Pressure Air Temp Water Temp Dewpoint Dewpoint Depression Visibility Wind Speed Wind Dir Waves Ship Positions

Forseti

Last reported at 2017-Feb-16 10:31 UTC. Time now 2017-Feb-23 07:20 UTC.
Position N 55°41' E 015°41'.

Length 85 m; draft 3.8 m.

Type: Cargo ship. MMSI: 304010297.

Date/timePositionNaut miles runAvg speedWind from/ knotsBaromVisibWave heightAir tempDewpointWater temp
2017-Feb-16 10:31N 55°41' E 015°41'1111.2
2017-Feb-16 09:33N 55°37' E 015°23'1110.9
2017-Feb-16 08:33N 55°31' E 015°07'1111.0
2017-Feb-16 07:33N 55°26' E 014°50'1111.1
2017-Feb-16 06:33N 55°19' E 014°34'1111.4
2017-Feb-16 05:33N 55°10' E 014°22'1111.2
2017-Feb-16 04:33N 55°01' E 014°10'1111.3
2017-Feb-16 03:33N 54°56' E 013°52'1211.4
2017-Feb-16 02:32N 54°52' E 013°33'1111.5
2017-Feb-16 01:33N 54°48' E 013°15'1211.6
2017-Feb-16 00:32N 54°43' E 012°56'1111.4
2017-Feb-15 23:33N 54°38' E 012°39'1111.1
2017-Feb-15 22:33N 54°33' E 012°22'1110.4
2017-Feb-15 21:32N 54°25' E 012°11'1111.1
2017-Feb-15 20:33N 54°14' E 012°05'5 1.6
2017-Feb-15 17:19N 54°09' E 012°07'0 0.0
2017-Feb-15 16:22N 54°09' E 012°07'0 0.0
2017-Feb-15 10:27N 54°09' E 012°07'0 0.0
2017-Feb-15 05:06N 54°09' E 012°07'0 0.0
2017-Feb-15 03:27N 54°09' E 012°07'0 0.0
2017-Feb-15 02:18N 54°09' E 012°07'0 0.0
2017-Feb-15 01:33N 54°09' E 012°07'0 0.0
2017-Feb-14 22:33N 54°09' E 012°07'0 0.0
2017-Feb-14 21:33N 54°09' E 012°07'0 0.0
2017-Feb-14 20:33N 54°09' E 012°07'0 0.0
2017-Feb-14 19:33N 54°09' E 012°07'0 0.0
2017-Feb-14 18:30N 54°09' E 012°07'0 0.0
2017-Feb-14 17:33N 54°09' E 012°07'0 0.0
2017-Feb-14 16:33N 54°09' E 012°07'0 0.0
2017-Feb-14 15:33N 54°09' E 012°07'0 0.0
2017-Feb-14 14:30N 54°09' E 012°07'0 0.0
2017-Feb-14 13:30N 54°09' E 012°07'0 0.0
2017-Feb-14 12:18N 54°09' E 012°07'0 0.0
2017-Feb-14 11:33N 54°09' E 012°07'0 0.0
2017-Feb-14 10:33N 54°09' E 012°07'0 0.0
2017-Feb-14 09:30N 54°09' E 012°07'0 0.0
2017-Feb-14 08:33N 54°09' E 012°07'0 0.0
2017-Feb-14 07:30N 54°09' E 012°07'2 1.9
2017-Feb-14 06:32N 54°11' E 012°05'8 8.4
2017-Feb-14 05:33N 54°19' E 012°00'7 7.4
2017-Feb-14 04:33N 54°26' E 012°02'8 7.5
2017-Feb-14 03:33N 54°31' E 012°11'9 9.1
2017-Feb-14 02:33N 54°40' E 012°18'9 9.2
2017-Feb-14 01:33N 54°47' E 012°27'9 9.1
2017-Feb-14 00:33N 54°55' E 012°36'9 8.8
2017-Feb-13 23:34N 55°03' E 012°37'9 9.1
2017-Feb-13 22:34N 55°13' E 012°37'9 9.1
2017-Feb-13 21:33N 55°22' E 012°38'9 9.3
2017-Feb-13 20:34N 55°31' E 012°40'9 8.9
2017-Feb-13 19:34N 55°40' E 012°41'10 9.8
2017-Feb-13 18:34N 55°49' E 012°40'10 9.9
2017-Feb-13 17:34N 55°59' E 012°38'8 8.3
2017-Feb-13 16:34N 56°07' E 012°31'10 9.8
2017-Feb-13 15:33N 56°12' E 012°16'39 9.4
2017-Feb-13 11:26N 56°48' E 011°50'910.7
2017-Feb-13 10:34N 56°57' E 011°44'1010.1
2017-Feb-13 09:33N 57°06' E 011°37'1010.2
2017-Feb-13 08:33N 57°16' E 011°31'1010.5
2017-Feb-13 07:33N 57°26' E 011°24'1010.3
2017-Feb-13 06:33N 57°33' E 011°11'1110.7
2017-Feb-13 05:33N 57°41' E 010°56'1010.0
2017-Feb-13 04:33N 57°46' E 010°41'9 8.8
2017-Feb-13 03:34N 57°46' E 010°25'8 8.3
2017-Feb-13 02:33N 57°44' E 010°09'9 9.0
2017-Feb-13 01:33N 57°43' E 009°53'9 9.2
2017-Feb-13 00:33N 57°42' E 009°36'1010.2
2017-Feb-12 23:33N 57°40' E 009°17'1010.0
2017-Feb-12 22:32N 57°39' E 008°58'13 9.9
2017-Feb-12 21:15N 57°39' E 008°34'57 9.8
2017-Feb-12 15:26N 57°36' E 006°48'281 6.7
2017-Feb-10 21:33N 57°10' W 001°52'7 7.1
2017-Feb-10 20:31N 57°09' W 002°05'0 0.0
2017-Feb-10 19:31N 57°09' W 002°05'0 0.0
2017-Feb-10 18:31N 57°09' W 002°05'0 0.0
2017-Feb-10 17:31N 57°09' W 002°05'0 0.0
2017-Feb-10 16:31N 57°09' W 002°05'0 0.0
2017-Feb-10 15:31N 57°09' W 002°05'0 0.0
2017-Feb-10 14:31N 57°09' W 002°05'0 0.0
2017-Feb-10 13:31N 57°09' W 002°05'0 0.0
2017-Feb-10 12:31N 57°09' W 002°05'0 0.0
2017-Feb-10 11:31N 57°09' W 002°05'0 0.0
2017-Feb-10 10:31N 57°09' W 002°05'0 0.0
2017-Feb-10 09:31N 57°09' W 002°05'0 0.0
2017-Feb-10 08:31N 57°09' W 002°05'0 0.0
2017-Feb-10 07:31N 57°09' W 002°05'0 0.0
2017-Feb-10 06:31N 57°09' W 002°05'0 0.0
2017-Feb-10 05:31N 57°09' W 002°05'0 0.0
2017-Feb-10 04:31N 57°09' W 002°05'0 0.0
2017-Feb-10 03:34N 57°09' W 002°05'0 0.0
2017-Feb-10 02:34N 57°09' W 002°05'0 0.0
2017-Feb-10 01:33N 57°09' W 002°05'0 0.0
2017-Feb-10 00:30N 57°09' W 002°05'0 0.0
2017-Feb-09 23:33N 57°09' W 002°05'0 0.0
2017-Feb-09 22:33N 57°09' W 002°05'0 0.0
2017-Feb-09 21:33N 57°09' W 002°05'0 0.0
2017-Feb-09 20:33N 57°09' W 002°05'0 0.0
2017-Feb-09 19:33N 57°09' W 002°05'0 0.0
2017-Feb-09 18:33N 57°09' W 002°05'0 0.0
2017-Feb-09 17:33N 57°09' W 002°05'0 0.0
2017-Feb-09 16:33N 57°09' W 002°05'0 0.0
2017-Feb-09 15:33N 57°09' W 002°05'0 0.0
2017-Feb-09 14:33N 57°09' W 002°05'0 0.0
2017-Feb-09 13:33N 57°09' W 002°05'0 0.0
2017-Feb-09 12:33N 57°09' W 002°05'0 0.0
2017-Feb-09 11:33N 57°09' W 002°05'2 2.5
2017-Feb-09 10:34N 57°09' W 002°01'5 5.0
2017-Feb-09 09:33N 57°07' W 001°52'1 0.9
2017-Feb-09 08:34N 57°08' W 001°50'1 1.5
2017-Feb-09 07:34N 57°08' W 001°53'2 1.8
2017-Feb-09 06:34N 57°08' W 001°56'2 1.8
2017-Feb-09 05:33N 57°06' W 001°53'3 2.6
2017-Feb-09 04:34N 57°07' W 001°48'2 2.3
2017-Feb-09 03:33N 57°07' W 001°52'2 1.6
2017-Feb-09 02:33N 57°08' W 001°55'1 1.4
2017-Feb-09 01:33N 57°07' W 001°58'4 4.4
2017-Feb-09 00:33N 57°06' W 001°50'0 0.4
2017-Feb-08 23:33N 57°06' W 001°51'1 1.1
2017-Feb-08 22:33N 57°06' W 001°53'1 1.4
2017-Feb-08 21:31N 57°07' W 001°55'2 2.1
2017-Feb-08 20:34N 57°07' W 001°58'4 4.5
2017-Feb-08 19:33N 57°06' W 001°51'1 0.6
2017-Feb-08 18:29N 57°07' W 001°50'2 2.1
2017-Feb-08 17:30N 57°08' W 001°54'2 2.1
2017-Feb-08 16:33N 57°08' W 001°57'4 3.6
2017-Feb-08 15:34N 57°05' W 001°53'1 1.2
2017-Feb-08 14:33N 57°05' W 001°56'1 1.2
2017-Feb-08 13:34N 57°05' W 001°58'1 0.9
2017-Feb-08 12:34N 57°06' W 001°59'1 0.8
2017-Feb-08 11:33N 57°05' W 001°58'2 1.8
2017-Feb-08 10:33N 57°04' W 001°56'1 0.8
2017-Feb-08 09:34N 57°05' W 001°56'2 2.1
2017-Feb-08 08:34N 57°06' W 001°58'2 2.4
2017-Feb-08 07:33N 57°05' W 001°55'1 0.5
2017-Feb-08 06:34N 57°05' W 001°56'1 1.1
2017-Feb-08 05:34N 57°06' W 001°57'3 2.8
2017-Feb-08 04:33N 57°04' W 002°00'3210.7
2017-Feb-08 01:32N 56°34' W 002°22'10 9.9
2017-Feb-08 00:34N 56°24' W 002°28'9 9.2
2017-Feb-07 23:33N 56°16' W 002°33'9 8.7
2017-Feb-07 22:34N 56°10' W 002°44'10 9.7
2017-Feb-07 21:34N 56°04' W 002°58'8 8.4
2017-Feb-07 20:33N 55°59' W 003°11'0 0.4
2017-Feb-07 19:32N 55°59' W 003°11'0 0.0
2017-Feb-07 18:32N 55°59' W 003°11'0 0.0
2017-Feb-07 17:32N 55°59' W 003°11'0 0.0
2017-Feb-07 16:32N 55°59' W 003°11'0 0.0
2017-Feb-07 15:32N 55°59' W 003°11'0 0.0
2017-Feb-07 14:32N 55°59' W 003°11'0 0.0
2017-Feb-07 13:32N 55°59' W 003°11'0 0.0
2017-Feb-07 12:32N 55°59' W 003°11'0 0.0
2017-Feb-07 11:32N 55°59' W 003°11'0 0.0
2017-Feb-07 10:32N 55°59' W 003°11'0 0.0
2017-Feb-07 09:32N 55°59' W 003°11'0 0.0
2017-Feb-07 08:32N 55°59' W 003°11'0 0.0
2017-Feb-07 07:32N 55°59' W 003°11'0 0.0
2017-Feb-07 06:32N 55°59' W 003°11'0 0.0
2017-Feb-07 05:32N 55°59' W 003°11'0 0.0
2017-Feb-07 04:32N 55°59' W 003°11'0 0.0
2017-Feb-07 03:32N 55°59' W 003°11'0 0.0
2017-Feb-07 02:32N 55°59' W 003°11'0 0.0
2017-Feb-07 01:32N 55°59' W 003°11'0 0.0
2017-Feb-07 00:32N 55°59' W 003°11'0 0.0
2017-Feb-06 23:32N 55°59' W 003°11'0 0.0
2017-Feb-06 22:32N 55°59' W 003°11'0 0.0
2017-Feb-06 21:32N 55°59' W 003°11'0 0.0
2017-Feb-06 20:32N 55°59' W 003°11'0 0.0
2017-Feb-06 19:29N 55°59' W 003°11'0 0.0
2017-Feb-06 18:32N 55°59' W 003°11'0 0.0
2017-Feb-06 17:32N 55°59' W 003°11'0 0.0
2017-Feb-06 16:32N 55°59' W 003°11'0 0.0
2017-Feb-06 15:32N 55°59' W 003°11'0 0.0
2017-Feb-06 14:32N 55°59' W 003°11'0 0.0
2017-Feb-06 13:26N 55°59' W 003°11'0 0.0
2017-Feb-06 12:31N 55°59' W 003°11'0 0.0
2017-Feb-06 11:31N 55°59' W 003°11'0 0.0
2017-Feb-06 10:31N 55°59' W 003°11'  
Track history (hours):
 
Tides and Currents Weather Stations Pressure Air Temp Water Temp Dewpoint Dewpoint Depression Visibility Wind Speed Wind Dir Waves Ship Positions

Forseti

Last reported at 2017-Feb-16 10:31 UTC. Time now 2017-Feb-23 07:20 UTC.
Position N 55°41' E 015°41'.

Length 85 m; draft 3.8 m.

Type: Cargo ship. MMSI: 304010297.

Date/timePositionNaut miles runAvg speedWind from/ knotsBaromVisibWave heightAir tempDewpointWater temp
2017-Feb-16 10:31N 55°41' E 015°41'1111.2
2017-Feb-16 09:33N 55°37' E 015°23'1110.9
2017-Feb-16 08:33N 55°31' E 015°07'1111.0
2017-Feb-16 07:33N 55°26' E 014°50'1111.1
2017-Feb-16 06:33N 55°19' E 014°34'1111.4
2017-Feb-16 05:33N 55°10' E 014°22'1111.2
2017-Feb-16 04:33N 55°01' E 014°10'1111.3
2017-Feb-16 03:33N 54°56' E 013°52'1211.4
2017-Feb-16 02:32N 54°52' E 013°33'1111.5
2017-Feb-16 01:33N 54°48' E 013°15'1211.6
2017-Feb-16 00:32N 54°43' E 012°56'1111.4
2017-Feb-15 23:33N 54°38' E 012°39'1111.1
2017-Feb-15 22:33N 54°33' E 012°22'1110.4
2017-Feb-15 21:32N 54°25' E 012°11'1111.1
2017-Feb-15 20:33N 54°14' E 012°05'5 1.6
2017-Feb-15 17:19N 54°09' E 012°07'0 0.0
2017-Feb-15 16:22N 54°09' E 012°07'0 0.0
2017-Feb-15 10:27N 54°09' E 012°07'0 0.0
2017-Feb-15 05:06N 54°09' E 012°07'0 0.0
2017-Feb-15 03:27N 54°09' E 012°07'0 0.0
2017-Feb-15 02:18N 54°09' E 012°07'0 0.0
2017-Feb-15 01:33N 54°09' E 012°07'0 0.0
2017-Feb-14 22:33N 54°09' E 012°07'0 0.0
2017-Feb-14 21:33N 54°09' E 012°07'0 0.0
2017-Feb-14 20:33N 54°09' E 012°07'0 0.0
2017-Feb-14 19:33N 54°09' E 012°07'0 0.0
2017-Feb-14 18:30N 54°09' E 012°07'0 0.0
2017-Feb-14 17:33N 54°09' E 012°07'0 0.0
2017-Feb-14 16:33N 54°09' E 012°07'0 0.0
2017-Feb-14 15:33N 54°09' E 012°07'0 0.0
2017-Feb-14 14:30N 54°09' E 012°07'0 0.0
2017-Feb-14 13:30N 54°09' E 012°07'0 0.0
2017-Feb-14 12:18N 54°09' E 012°07'0 0.0
2017-Feb-14 11:33N 54°09' E 012°07'0 0.0
2017-Feb-14 10:33N 54°09' E 012°07'0 0.0
2017-Feb-14 09:30N 54°09' E 012°07'0 0.0
2017-Feb-14 08:33N 54°09' E 012°07'0 0.0
2017-Feb-14 07:30N 54°09' E 012°07'2 1.9
2017-Feb-14 06:32N 54°11' E 012°05'8 8.4
2017-Feb-14 05:33N 54°19' E 012°00'7 7.4
2017-Feb-14 04:33N 54°26' E 012°02'8 7.5
2017-Feb-14 03:33N 54°31' E 012°11'9 9.1
2017-Feb-14 02:33N 54°40' E 012°18'9 9.2
2017-Feb-14 01:33N 54°47' E 012°27'9 9.1
2017-Feb-14 00:33N 54°55' E 012°36'9 8.8
2017-Feb-13 23:34N 55°03' E 012°37'9 9.1
2017-Feb-13 22:34N 55°13' E 012°37'9 9.1
2017-Feb-13 21:33N 55°22' E 012°38'9 9.3
2017-Feb-13 20:34N 55°31' E 012°40'9 8.9
2017-Feb-13 19:34N 55°40' E 012°41'10 9.8
2017-Feb-13 18:34N 55°49' E 012°40'10 9.9
2017-Feb-13 17:34N 55°59' E 012°38'8 8.3
2017-Feb-13 16:34N 56°07' E 012°31'10 9.8
2017-Feb-13 15:33N 56°12' E 012°16'39 9.4
2017-Feb-13 11:26N 56°48' E 011°50'910.7
2017-Feb-13 10:34N 56°57' E 011°44'1010.1
2017-Feb-13 09:33N 57°06' E 011°37'1010.2
2017-Feb-13 08:33N 57°16' E 011°31'1010.5
2017-Feb-13 07:33N 57°26' E 011°24'1010.3
2017-Feb-13 06:33N 57°33' E 011°11'1110.7
2017-Feb-13 05:33N 57°41' E 010°56'1010.0
2017-Feb-13 04:33N 57°46' E 010°41'9 8.8
2017-Feb-13 03:34N 57°46' E 010°25'8 8.3
2017-Feb-13 02:33N 57°44' E 010°09'9 9.0
2017-Feb-13 01:33N 57°43' E 009°53'9 9.2
2017-Feb-13 00:33N 57°42' E 009°36'1010.2
2017-Feb-12 23:33N 57°40' E 009°17'1010.0
2017-Feb-12 22:32N 57°39' E 008°58'13 9.9
2017-Feb-12 21:15N 57°39' E 008°34'57 9.8
2017-Feb-12 15:26N 57°36' E 006°48'281 6.7
2017-Feb-10 21:33N 57°10' W 001°52'7 7.1
2017-Feb-10 20:31N 57°09' W 002°05'0 0.0
2017-Feb-10 19:31N 57°09' W 002°05'0 0.0
2017-Feb-10 18:31N 57°09' W 002°05'0 0.0
2017-Feb-10 17:31N 57°09' W 002°05'0 0.0
2017-Feb-10 16:31N 57°09' W 002°05'0 0.0
2017-Feb-10 15:31N 57°09' W 002°05'0 0.0
2017-Feb-10 14:31N 57°09' W 002°05'0 0.0
2017-Feb-10 13:31N 57°09' W 002°05'0 0.0
2017-Feb-10 12:31N 57°09' W 002°05'0 0.0
2017-Feb-10 11:31N 57°09' W 002°05'0 0.0
2017-Feb-10 10:31N 57°09' W 002°05'0 0.0
2017-Feb-10 09:31N 57°09' W 002°05'0 0.0
2017-Feb-10 08:31N 57°09' W 002°05'0 0.0
2017-Feb-10 07:31N 57°09' W 002°05'0 0.0
2017-Feb-10 06:31N 57°09' W 002°05'0 0.0
2017-Feb-10 05:31N 57°09' W 002°05'0 0.0
2017-Feb-10 04:31N 57°09' W 002°05'0 0.0
2017-Feb-10 03:34N 57°09' W 002°05'0 0.0
2017-Feb-10 02:34N 57°09' W 002°05'0 0.0
2017-Feb-10 01:33N 57°09' W 002°05'0 0.0
2017-Feb-10 00:30N 57°09' W 002°05'0 0.0
2017-Feb-09 23:33N 57°09' W 002°05'0 0.0
2017-Feb-09 22:33N 57°09' W 002°05'0 0.0
2017-Feb-09 21:33N 57°09' W 002°05'0 0.0
2017-Feb-09 20:33N 57°09' W 002°05'0 0.0
2017-Feb-09 19:33N 57°09' W 002°05'0 0.0
2017-Feb-09 18:33N 57°09' W 002°05'0 0.0
2017-Feb-09 17:33N 57°09' W 002°05'0 0.0
2017-Feb-09 16:33N 57°09' W 002°05'0 0.0
2017-Feb-09 15:33N 57°09' W 002°05'0 0.0
2017-Feb-09 14:33N 57°09' W 002°05'0 0.0
2017-Feb-09 13:33N 57°09' W 002°05'0 0.0
2017-Feb-09 12:33N 57°09' W 002°05'0 0.0
2017-Feb-09 11:33N 57°09' W 002°05'2 2.5
2017-Feb-09 10:34N 57°09' W 002°01'5 5.0
2017-Feb-09 09:33N 57°07' W 001°52'1 0.9
2017-Feb-09 08:34N 57°08' W 001°50'1 1.5
2017-Feb-09 07:34N 57°08' W 001°53'2 1.8
2017-Feb-09 06:34N 57°08' W 001°56'2 1.8
2017-Feb-09 05:33N 57°06' W 001°53'3 2.6
2017-Feb-09 04:34N 57°07' W 001°48'2 2.3
2017-Feb-09 03:33N 57°07' W 001°52'2 1.6
2017-Feb-09 02:33N 57°08' W 001°55'1 1.4
2017-Feb-09 01:33N 57°07' W 001°58'4 4.4
2017-Feb-09 00:33N 57°06' W 001°50'0 0.4
2017-Feb-08 23:33N 57°06' W 001°51'1 1.1
2017-Feb-08 22:33N 57°06' W 001°53'1 1.4
2017-Feb-08 21:31N 57°07' W 001°55'2 2.1
2017-Feb-08 20:34N 57°07' W 001°58'4 4.5
2017-Feb-08 19:33N 57°06' W 001°51'1 0.6
2017-Feb-08 18:29N 57°07' W 001°50'2 2.1
2017-Feb-08 17:30N 57°08' W 001°54'2 2.1
2017-Feb-08 16:33N 57°08' W 001°57'4 3.6
2017-Feb-08 15:34N 57°05' W 001°53'1 1.2
2017-Feb-08 14:33N 57°05' W 001°56'1 1.2
2017-Feb-08 13:34N 57°05' W 001°58'1 0.9
2017-Feb-08 12:34N 57°06' W 001°59'1 0.8
2017-Feb-08 11:33N 57°05' W 001°58'2 1.8
2017-Feb-08 10:33N 57°04' W 001°56'1 0.8
2017-Feb-08 09:34N 57°05' W 001°56'2 2.1
2017-Feb-08 08:34N 57°06' W 001°58'2 2.4
2017-Feb-08 07:33N 57°05' W 001°55'1 0.5
2017-Feb-08 06:34N 57°05' W 001°56'1 1.1
2017-Feb-08 05:34N 57°06' W 001°57'3 2.8
2017-Feb-08 04:33N 57°04' W 002°00'3210.7
2017-Feb-08 01:32N 56°34' W 002°22'10 9.9
2017-Feb-08 00:34N 56°24' W 002°28'9 9.2
2017-Feb-07 23:33N 56°16' W 002°33'9 8.7
2017-Feb-07 22:34N 56°10' W 002°44'10 9.7
2017-Feb-07 21:34N 56°04' W 002°58'8 8.4
2017-Feb-07 20:33N 55°59' W 003°11'0 0.4
2017-Feb-07 19:32N 55°59' W 003°11'0 0.0
2017-Feb-07 18:32N 55°59' W 003°11'0 0.0
2017-Feb-07 17:32N 55°59' W 003°11'0 0.0
2017-Feb-07 16:32N 55°59' W 003°11'0 0.0
2017-Feb-07 15:32N 55°59' W 003°11'0 0.0
2017-Feb-07 14:32N 55°59' W 003°11'0 0.0
2017-Feb-07 13:32N 55°59' W 003°11'0 0.0
2017-Feb-07 12:32N 55°59' W 003°11'0 0.0
2017-Feb-07 11:32N 55°59' W 003°11'0 0.0
2017-Feb-07 10:32N 55°59' W 003°11'0 0.0
2017-Feb-07 09:32N 55°59' W 003°11'0 0.0
2017-Feb-07 08:32N 55°59' W 003°11'0 0.0
2017-Feb-07 07:32N 55°59' W 003°11'0 0.0
2017-Feb-07 06:32N 55°59' W 003°11'0 0.0
2017-Feb-07 05:32N 55°59' W 003°11'0 0.0
2017-Feb-07 04:32N 55°59' W 003°11'0 0.0
2017-Feb-07 03:32N 55°59' W 003°11'0 0.0
2017-Feb-07 02:32N 55°59' W 003°11'0 0.0
2017-Feb-07 01:32N 55°59' W 003°11'0 0.0
2017-Feb-07 00:32N 55°59' W 003°11'0 0.0
2017-Feb-06 23:32N 55°59' W 003°11'0 0.0
2017-Feb-06 22:32N 55°59' W 003°11'0 0.0
2017-Feb-06 21:32N 55°59' W 003°11'0 0.0
2017-Feb-06 20:32N 55°59' W 003°11'0 0.0
2017-Feb-06 19:29N 55°59' W 003°11'0 0.0
2017-Feb-06 18:32N 55°59' W 003°11'0 0.0
2017-Feb-06 17:32N 55°59' W 003°11'0 0.0
2017-Feb-06 16:32N 55°59' W 003°11'0 0.0
2017-Feb-06 15:32N 55°59' W 003°11'0 0.0
2017-Feb-06 14:32N 55°59' W 003°11'0 0.0
2017-Feb-06 13:26N 55°59' W 003°11'0 0.0
2017-Feb-06 12:31N 55°59' W 003°11'0 0.0
2017-Feb-06 11:31N 55°59' W 003°11'0 0.0
2017-Feb-06 10:31N 55°59' W 003°11'  

Dump ship's entire track history